sensor_id;sensor_type;location;lat;lon;timestamp;pressure;altitude;pressure_sealevel;temperature;humidity
60871;BME280;46714;50.118;14.462;2022-09-09T00:04:37;98656.59;;;13.97;95.65
60871;BME280;46714;50.118;14.462;2022-09-09T00:10:00;98667.47;;;13.92;95.80
60871;BME280;46714;50.118;14.462;2022-09-09T00:15:21;98666.22;;;13.82;95.93
60871;BME280;46714;50.118;14.462;2022-09-09T00:20:45;98671.28;;;13.74;95.98
60871;BME280;46714;50.118;14.462;2022-09-09T00:23:30;98663.50;;;13.66;96.20
60871;BME280;46714;50.118;14.462;2022-09-09T00:26:09;98667.28;;;13.65;96.57
60871;BME280;46714;50.118;14.462;2022-09-09T00:29:10;98673.03;;;13.63;96.69
60871;BME280;46714;50.118;14.462;2022-09-09T00:31:39;98672.44;;;13.61;96.58
60871;BME280;46714;50.118;14.462;2022-09-09T00:34:09;98677.31;;;13.59;97.33
60871;BME280;46714;50.118;14.462;2022-09-09T00:36:39;98673.75;;;13.58;96.91
60871;BME280;46714;50.118;14.462;2022-09-09T00:39:05;98672.09;;;13.57;96.93
60871;BME280;46714;50.118;14.462;2022-09-09T00:57:43;98672.91;;;13.58;97.04
60871;BME280;46714;50.118;14.462;2022-09-09T01:06:36;98672.91;;;13.58;97.60
60871;BME280;46714;50.118;14.462;2022-09-09T01:19:47;98684.13;;;13.56;97.65
60871;BME280;46714;50.118;14.462;2022-09-09T01:27:44;98676.66;;;13.52;97.79
60871;BME280;46714;50.118;14.462;2022-09-09T01:30:13;98677.38;;;13.47;97.33
60871;BME280;46714;50.118;14.462;2022-09-09T01:32:43;98673.81;;;13.47;97.80
60871;BME280;46714;50.118;14.462;2022-09-09T01:37:57;98673.25;;;13.45;98.63
60871;BME280;46714;50.118;14.462;2022-09-09T01:40:24;98669.91;;;13.43;98.03
60871;BME280;46714;50.118;14.462;2022-09-09T01:42:50;98676.44;;;13.41;98.05
60871;BME280;46714;50.118;14.462;2022-09-09T01:45:16;98680.28;;;13.40;98.09
60871;BME280;46714;50.118;14.462;2022-09-09T01:47:42;98676.94;;;13.38;97.53
60871;BME280;46714;50.118;14.462;2022-09-09T01:50:09;98675.28;;;13.37;98.19
60871;BME280;46714;50.118;14.462;2022-09-09T01:52:59;98670.91;;;13.36;98.41
60871;BME280;46714;50.118;14.462;2022-09-09T01:55:34;98676.34;;;13.36;98.16
60871;BME280;46714;50.118;14.462;2022-09-09T02:00:58;98673.88;;;13.35;98.06
60871;BME280;46714;50.118;14.462;2022-09-09T02:03:31;98668.41;;;13.35;98.39
60871;BME280;46714;50.118;14.462;2022-09-09T02:08:45;98664.84;;;13.34;97.84
60871;BME280;46714;50.118;14.462;2022-09-09T02:11:14;98659.59;;;13.33;97.60
60871;BME280;46714;50.118;14.462;2022-09-09T02:13:46;98669.94;;;13.31;98.30
60871;BME280;46714;50.118;14.462;2022-09-09T02:21:39;98671.66;;;13.20;97.56
60871;BME280;46714;50.118;14.462;2022-09-09T02:24:07;98664.28;;;13.20;98.17
60871;BME280;46714;50.118;14.462;2022-09-09T02:26:35;98671.06;;;13.18;98.02
60871;BME280;46714;50.118;14.462;2022-09-09T02:29:06;98670.47;;;13.16;98.74
60871;BME280;46714;50.118;14.462;2022-09-09T02:31:34;98662.28;;;13.16;98.33
60871;BME280;46714;50.118;14.462;2022-09-09T02:34:03;98667.16;;;13.14;98.05
60871;BME280;46714;50.118;14.462;2022-09-09T02:36:33;98670.97;;;13.13;98.29
60871;BME280;46714;50.118;14.462;2022-09-09T02:39:00;98673.72;;;13.13;98.27
60871;BME280;46714;50.118;14.462;2022-09-09T02:41:32;98672.28;;;13.10;98.87
60871;BME280;46714;50.118;14.462;2022-09-09T02:44:00;98665.97;;;13.10;99.00
60871;BME280;46714;50.118;14.462;2022-09-09T02:49:03;98679.03;;;13.08;99.02
60871;BME280;46714;50.118;14.462;2022-09-09T02:51:56;98680.13;;;13.07;98.59
60871;BME280;46714;50.118;14.462;2022-09-09T02:56:58;98675.03;;;12.98;98.77
60871;BME280;46714;50.118;14.462;2022-09-09T02:59:31;98670.91;;;12.96;99.07
60871;BME280;46714;50.118;14.462;2022-09-09T03:01:57;98678.50;;;12.94;98.96
60871;BME280;46714;50.118;14.462;2022-09-09T03:04:22;98675.22;;;12.92;99.04
60871;BME280;46714;50.118;14.462;2022-09-09T03:06:49;98671.03;;;12.89;99.23
60871;BME280;46714;50.118;14.462;2022-09-09T03:09:14;98673.16;;;12.87;98.56
60871;BME280;46714;50.118;14.462;2022-09-09T03:11:40;98671.53;;;12.86;98.82
60871;BME280;46714;50.118;14.462;2022-09-09T03:14:05;98684.09;;;12.87;99.20
60871;BME280;46714;50.118;14.462;2022-09-09T03:16:31;98683.28;;;12.87;99.14
60871;BME280;46714;50.118;14.462;2022-09-09T03:18:58;98687.69;;;12.88;99.44
60871;BME280;46714;50.118;14.462;2022-09-09T03:21:23;98682.81;;;12.90;99.68
60871;BME280;46714;50.118;14.462;2022-09-09T03:23:49;98682.56;;;12.91;99.70
60871;BME280;46714;50.118;14.462;2022-09-09T03:26:15;98684.69;;;12.89;99.90
60871;BME280;46714;50.118;14.462;2022-09-09T03:28:41;98681.97;;;12.89;99.54
60871;BME280;46714;50.118;14.462;2022-09-09T03:31:06;98681.97;;;12.89;100.00
60871;BME280;46714;50.118;14.462;2022-09-09T03:33:35;98683.03;;;12.88;99.81
60871;BME280;46714;50.118;14.462;2022-09-09T03:36:02;98681.38;;;12.87;100.00
60871;BME280;46714;50.118;14.462;2022-09-09T03:38:27;98688.75;;;12.87;100.00
60871;BME280;46714;50.118;14.462;2022-09-09T03:40:54;98687.91;;;12.86;100.00
60871;BME280;46714;50.118;14.462;2022-09-09T03:43:22;98687.31;;;12.84;100.00
60871;BME280;46714;50.118;14.462;2022-09-09T03:45:48;98698.25;;;12.84;100.00
60871;BME280;46714;50.118;14.462;2022-09-09T03:48:14;98688.16;;;12.85;100.00
60871;BME280;46714;50.118;14.462;2022-09-09T03:50:48;98686.00;;;12.87;100.00
60871;BME280;46714;50.118;14.462;2022-09-09T03:53:15;98681.97;;;12.89;100.00
60871;BME280;46714;50.118;14.462;2022-09-09T03:55:44;98680.91;;;12.90;100.00
60871;BME280;46714;50.118;14.462;2022-09-09T03:58:14;98680.66;;;12.92;100.00
60871;BME280;46714;50.118;14.462;2022-09-09T04:00:40;98678.16;;;12.90;100.00
60871;BME280;46714;50.118;14.462;2022-09-09T04:03:09;98682.81;;;12.90;100.00
60871;BME280;46714;50.118;14.462;2022-09-09T04:05:35;98680.66;;;12.92;100.00
60871;BME280;46714;50.118;14.462;2022-09-09T04:08:04;98676.84;;;12.93;100.00
60871;BME280;46714;50.118;14.462;2022-09-09T04:10:31;98678.75;;;12.92;100.00
60871;BME280;46714;50.118;14.462;2022-09-09T04:12:56;98683.13;;;12.93;99.74
60871;BME280;46714;50.118;14.462;2022-09-09T04:15:22;98687.19;;;12.91;99.59
60871;BME280;46714;50.118;14.462;2022-09-09T04:17:47;98682.22;;;12.88;99.88
60871;BME280;46714;50.118;14.462;2022-09-09T04:20:12;98688.50;;;12.88;100.00
60871;BME280;46714;50.118;14.462;2022-09-09T04:22:38;98678.41;;;12.89;99.71
60871;BME280;46714;50.118;14.462;2022-09-09T04:25:06;98677.09;;;12.91;100.00
60871;BME280;46714;50.118;14.462;2022-09-09T04:27:31;98678.16;;;12.90;99.57
60871;BME280;46714;50.118;14.462;2022-09-09T04:29:57;98676.50;;;12.89;99.93
60871;BME280;46714;50.118;14.462;2022-09-09T04:32:23;98684.47;;;12.91;100.00
60871;BME280;46714;50.118;14.462;2022-09-09T04:34:52;98674.34;;;12.91;100.00
60871;BME280;46714;50.118;14.462;2022-09-09T04:37:17;98680.66;;;12.92;100.00
60871;BME280;46714;50.118;14.462;2022-09-09T04:39:42;98675.22;;;12.92;99.91
60871;BME280;46714;50.118;14.462;2022-09-09T04:42:08;98685.06;;;12.93;100.00
60871;BME280;46714;50.118;14.462;2022-09-09T04:44:33;98687.56;;;12.94;100.00
60871;BME280;46714;50.118;14.462;2022-09-09T04:46:58;98690.88;;;12.96;100.00
60871;BME280;46714;50.118;14.462;2022-09-09T04:49:24;98682.19;;;12.99;99.92
60871;BME280;46714;50.118;14.462;2022-09-09T04:51:49;98690.72;;;13.03;100.00
60871;BME280;46714;50.118;14.462;2022-09-09T04:54:14;98691.56;;;13.04;100.00
60871;BME280;46714;50.118;14.462;2022-09-09T04:56:40;98690.25;;;13.06;100.00
60871;BME280;46714;50.118;14.462;2022-09-09T04:59:07;98697.13;;;13.09;99.50
60871;BME280;46714;50.118;14.462;2022-09-09T05:01:32;98690.09;;;13.13;99.77
60871;BME280;46714;50.118;14.462;2022-09-09T05:03:59;98692.34;;;13.16;100.00
60871;BME280;46714;50.118;14.462;2022-09-09T05:06:25;98690.78;;;13.20;99.80
60871;BME280;46714;50.118;14.462;2022-09-09T05:08:50;98691.38;;;13.22;99.59
60871;BME280;46714;50.118;14.462;2022-09-09T05:11:17;98693.84;;;13.24;99.66
60871;BME280;46714;50.118;14.462;2022-09-09T05:13:44;98691.69;;;13.26;99.50
60871;BME280;46714;50.118;14.462;2022-09-09T05:16:09;98692.91;;;13.30;99.41
60871;BME280;46714;50.118;14.462;2022-09-09T05:18:36;98701.69;;;13.32;99.35
60871;BME280;46714;50.118;14.462;2022-09-09T05:21:05;98701.47;;;13.33;99.90
60871;BME280;46714;50.118;14.462;2022-09-09T05:23:31;98707.75;;;13.34;100.00
60871;BME280;46714;50.118;14.462;2022-09-09T05:25:58;98702.06;;;13.35;99.35
60871;BME280;46714;50.118;14.462;2022-09-09T05:28:25;98703.19;;;13.39;99.25
60871;BME280;46714;50.118;14.462;2022-09-09T05:30:55;98711.53;;;13.45;99.07
60871;BME280;46714;50.118;14.462;2022-09-09T05:33:21;98709.94;;;13.49;98.82
60871;BME280;46714;50.118;14.462;2022-09-09T05:35:46;98702.09;;;13.52;99.29
60871;BME280;46714;50.118;14.462;2022-09-09T05:38:11;98707.88;;;13.56;98.51
60871;BME280;46714;50.118;14.462;2022-09-09T05:40:37;98709.06;;;13.60;98.42
60871;BME280;46714;50.118;14.462;2022-09-09T05:43:02;98708.81;;;13.61;98.97
60871;BME280;46714;50.118;14.462;2022-09-09T05:45:28;98705.84;;;13.63;98.54
60871;BME280;46714;50.118;14.462;2022-09-09T05:47:53;98704.75;;;13.64;97.90
60871;BME280;46714;50.118;14.462;2022-09-09T05:50:18;98697.13;;;13.66;97.32
60871;BME280;46714;50.118;14.462;2022-09-09T05:52:44;98699.38;;;13.69;97.10
60871;BME280;46714;50.118;14.462;2022-09-09T05:55:09;98698.63;;;13.74;96.81
60871;BME280;46714;50.118;14.462;2022-09-09T05:57:34;98705.28;;;13.78;97.29
60871;BME280;46714;50.118;14.462;2022-09-09T06:00:00;98705.84;;;13.80;97.27
60871;BME280;46714;50.118;14.462;2022-09-09T06:02:25;98714.06;;;13.80;96.78
60871;BME280;46714;50.118;14.462;2022-09-09T06:04:51;98717.88;;;13.79;96.69
60871;BME280;46714;50.118;14.462;2022-09-09T06:07:16;98717.53;;;13.75;97.08
60871;BME280;46714;50.118;14.462;2022-09-09T06:09:42;98717.03;;;13.78;97.13
60871;BME280;46714;50.118;14.462;2022-09-09T06:12:08;98722.50;;;13.78;97.60
60871;BME280;46714;50.118;14.462;2022-09-09T06:14:33;98729.56;;;13.74;97.14
60871;BME280;46714;50.118;14.462;2022-09-09T06:16:59;98726.47;;;13.71;97.54
60871;BME280;46714;50.118;14.462;2022-09-09T06:19:24;98735.50;;;13.71;97.00
60871;BME280;46714;50.118;14.462;2022-09-09T06:21:51;98730.28;;;13.70;97.29
60871;BME280;46714;50.118;14.462;2022-09-09T06:24:17;98733.88;;;13.70;97.02
60871;BME280;46714;50.118;14.462;2022-09-09T06:26:44;98734.69;;;13.71;96.55
60871;BME280;46714;50.118;14.462;2022-09-09T06:29:10;98735.28;;;13.73;96.59
60871;BME280;46714;50.118;14.462;2022-09-09T06:31:36;98732.53;;;13.73;95.89
60871;BME280;46714;50.118;14.462;2022-09-09T06:34:04;98735.59;;;13.76;96.09
60871;BME280;46714;50.118;14.462;2022-09-09T06:36:31;98734.03;;;13.80;96.78
60871;BME280;46714;50.118;14.462;2022-09-09T06:38:59;98741.50;;;13.85;95.92
60871;BME280;46714;50.118;14.462;2022-09-09T06:41:25;98728.16;;;13.89;95.91
60871;BME280;46714;50.118;14.462;2022-09-09T06:43:55;98738.03;;;13.90;95.95
60871;BME280;46714;50.118;14.462;2022-09-09T06:46:22;98729.81;;;13.90;95.84
60871;BME280;46714;50.118;14.462;2022-09-09T06:48:52;98736.69;;;13.92;96.03
60871;BME280;46714;50.118;14.462;2022-09-09T06:51:21;98731.00;;;13.94;96.12
60871;BME280;46714;50.118;14.462;2022-09-09T06:53:49;98726.69;;;13.98;95.44
60871;BME280;46714;50.118;14.462;2022-09-09T06:58:44;98725.34;;;14.17;94.75
60871;BME280;46714;50.118;14.462;2022-09-09T07:01:11;98726.59;;;14.27;94.09
60871;BME280;46714;50.118;14.462;2022-09-09T07:03:38;98723.69;;;14.33;93.56
60871;BME280;46714;50.118;14.462;2022-09-09T07:06:04;98723.50;;;14.40;92.88
60871;BME280;46714;50.118;14.462;2022-09-09T07:08:30;98733.72;;;14.44;92.49
60871;BME280;46714;50.118;14.462;2022-09-09T07:11:02;98728.06;;;14.51;92.53
60871;BME280;46714;50.118;14.462;2022-09-09T07:13:29;98729.91;;;14.62;92.26
60871;BME280;46714;50.118;14.462;2022-09-09T07:16:02;98728.91;;;14.69;92.48
60871;BME280;46714;50.118;14.462;2022-09-09T07:18:39;98728.97;;;14.74;91.60
60871;BME280;46714;50.118;14.462;2022-09-09T07:21:06;98729.09;;;14.84;91.02
60871;BME280;46714;50.118;14.462;2022-09-09T07:23:33;98729.75;;;14.91;90.47
60871;BME280;46714;50.118;14.462;2022-09-09T07:26:00;98730.13;;;15.00;90.77
60871;BME280;46714;50.118;14.462;2022-09-09T07:28:26;98733.50;;;15.07;90.76
60871;BME280;46714;50.118;14.462;2022-09-09T07:30:57;98725.69;;;15.16;89.90
60871;BME280;46714;50.118;14.462;2022-09-09T07:33:28;98729.31;;;15.21;90.03
60871;BME280;46714;50.118;14.462;2022-09-09T07:36:01;98730.19;;;15.27;89.92
60871;BME280;46714;50.118;14.462;2022-09-09T07:38:38;98726.44;;;15.33;88.52
60871;BME280;46714;50.118;14.462;2022-09-09T07:41:05;98733.66;;;15.39;87.96
60871;BME280;46714;50.118;14.462;2022-09-09T07:43:37;98732.88;;;15.44;87.91
60871;BME280;46714;50.118;14.462;2022-09-09T07:46:04;98728.03;;;15.51;88.12
60871;BME280;46714;50.118;14.462;2022-09-09T07:48:31;98733.84;;;15.60;87.73
60871;BME280;46714;50.118;14.462;2022-09-09T07:51:07;98735.88;;;15.69;88.51
60871;BME280;46714;50.118;14.462;2022-09-09T07:53:39;98731.06;;;15.77;88.02
60871;BME280;46714;50.118;14.462;2022-09-09T07:56:06;98735.81;;;15.86;86.26
60871;BME280;46714;50.118;14.462;2022-09-09T07:58:34;98737.00;;;15.96;86.28
60871;BME280;46714;50.118;14.462;2022-09-09T08:01:05;98734.06;;;16.07;86.19
60871;BME280;46714;50.118;14.462;2022-09-09T08:03:58;98736.38;;;16.21;85.41
60871;BME280;46714;50.118;14.462;2022-09-09T08:06:30;98737.81;;;16.28;84.45
60871;BME280;46714;50.118;14.462;2022-09-09T08:08:58;98736.19;;;16.32;83.83
60871;BME280;46714;50.118;14.462;2022-09-09T08:11:25;98740.91;;;16.37;83.81
60871;BME280;46714;50.118;14.462;2022-09-09T08:13:52;98734.63;;;16.42;83.11
60871;BME280;46714;50.118;14.462;2022-09-09T08:16:26;98731.91;;;16.47;83.67
60871;BME280;46714;50.118;14.462;2022-09-09T08:18:52;98734.72;;;16.57;83.38
60871;BME280;46714;50.118;14.462;2022-09-09T08:21:22;98737.53;;;16.67;82.49
60871;BME280;46714;50.118;14.462;2022-09-09T08:23:50;98743.94;;;16.78;81.96
60871;BME280;46714;50.118;14.462;2022-09-09T08:26:18;98749.56;;;16.93;81.84
60871;BME280;46714;50.118;14.462;2022-09-09T08:28:52;98752.09;;;17.05;81.31
60871;BME280;46714;50.118;14.462;2022-09-09T08:31:22;98754.34;;;17.19;81.63
60871;BME280;46714;50.118;14.462;2022-09-09T08:33:58;98751.38;;;17.35;80.77
60871;BME280;46714;50.118;14.462;2022-09-09T08:36:25;98753.63;;;17.49;80.32
60871;BME280;46714;50.118;14.462;2022-09-09T08:38:53;98756.16;;;17.61;79.66
60871;BME280;46714;50.118;14.462;2022-09-09T08:43:52;98756.44;;;17.69;77.64
60871;BME280;46714;50.118;14.462;2022-09-09T08:47:05;98752.06;;;17.73;77.98
60871;BME280;46714;50.118;14.462;2022-09-09T08:49:38;98744.63;;;17.74;77.13
60871;BME280;46714;50.118;14.462;2022-09-09T08:57:52;98745.69;;;17.63;77.45
60871;BME280;46714;50.118;14.462;2022-09-09T09:00:21;98745.13;;;17.61;76.86
60871;BME280;46714;50.118;14.462;2022-09-09T09:05:55;98747.06;;;17.60;75.56
60871;BME280;46714;50.118;14.462;2022-09-09T09:11:47;98745.13;;;17.61;75.66
60871;BME280;46714;50.118;14.462;2022-09-09T09:14:23;98741.00;;;17.63;75.55
60871;BME280;46714;50.118;14.462;2022-09-09T09:19:39;98738.25;;;17.68;76.73
60871;BME280;46714;50.118;14.462;2022-09-09T09:24:55;98736.09;;;17.80;77.28
60871;BME280;46714;50.118;14.462;2022-09-09T09:36:13;98725.97;;;18.02;75.13
60871;BME280;46714;50.118;14.462;2022-09-09T09:41:48;98715.22;;;18.15;76.78
60871;BME280;46714;50.118;14.462;2022-09-09T09:46:50;98718.53;;;18.28;75.01
60871;BME280;46714;50.118;14.462;2022-09-09T09:49:16;98712.19;;;18.37;74.64
60871;BME280;46714;50.118;14.462;2022-09-09T09:51:42;98709.69;;;18.46;75.97
60871;BME280;46714;50.118;14.462;2022-09-09T09:56:39;98707.75;;;18.67;73.21
60871;BME280;46714;50.118;14.462;2022-09-09T09:59:17;98703.28;;;18.71;72.36
60871;BME280;46714;50.118;14.462;2022-09-09T10:01:48;98707.97;;;18.76;72.47
60871;BME280;46714;50.118;14.462;2022-09-09T10:04:15;98695.03;;;18.81;70.71
60871;BME280;46714;50.118;14.462;2022-09-09T10:06:43;98705.75;;;18.93;69.94
60871;BME280;46714;50.118;14.462;2022-09-09T10:09:25;98702.13;;;19.03;70.73
60871;BME280;46714;50.118;14.462;2022-09-09T10:20:31;98695.44;;;19.19;71.10
60871;BME280;46714;50.118;14.462;2022-09-09T10:37:02;98678.31;;;19.77;66.27
60871;BME280;46714;50.118;14.462;2022-09-09T10:39:40;98678.16;;;19.98;66.44
60871;BME280;46714;50.118;14.462;2022-09-09T10:42:06;98682.66;;;20.18;66.64
60871;BME280;46714;50.118;14.462;2022-09-09T10:47:46;98665.88;;;20.38;64.15
60871;BME280;46714;50.118;14.462;2022-09-09T10:55:56;98657.53;;;20.73;60.67
60871;BME280;46714;50.118;14.462;2022-09-09T10:58:35;98658.25;;;20.83;60.02
60871;BME280;46714;50.118;14.462;2022-09-09T11:01:10;98660.88;;;20.93;61.38
60871;BME280;46714;50.118;14.462;2022-09-09T11:03:41;98654.59;;;21.12;60.11
60871;BME280;46714;50.118;14.462;2022-09-09T11:06:13;98652.50;;;21.23;58.11
60871;BME280;46714;50.118;14.462;2022-09-09T11:08:43;98656.84;;;21.29;56.35
60871;BME280;46714;50.118;14.462;2022-09-09T11:11:11;98663.38;;;21.38;56.52
60871;BME280;46714;50.118;14.462;2022-09-09T11:13:44;98663.75;;;21.50;56.74
60871;BME280;46714;50.118;14.462;2022-09-09T11:18:50;98661.59;;;21.66;54.66
60871;BME280;46714;50.118;14.462;2022-09-09T11:21:27;98662.66;;;21.70;56.02
60871;BME280;46714;50.118;14.462;2022-09-09T11:23:57;98658.00;;;21.66;57.02
60871;BME280;46714;50.118;14.462;2022-09-09T11:26:41;98668.41;;;21.55;56.88
60871;BME280;46714;50.118;14.462;2022-09-09T11:29:25;98667.50;;;21.41;57.77
60871;BME280;46714;50.118;14.462;2022-09-09T11:32:28;98672.03;;;20.88;65.23
60871;BME280;46714;50.118;14.462;2022-09-09T11:35:07;98677.06;;;19.54;77.92
60871;BME280;46714;50.118;14.462;2022-09-09T11:37:42;98680.72;;;18.59;82.22
60871;BME280;46714;50.118;14.462;2022-09-09T11:43:00;98671.69;;;17.82;90.23
60871;BME280;46714;50.118;14.462;2022-09-09T11:45:34;98671.38;;;17.68;92.37
60871;BME280;46714;50.118;14.462;2022-09-09T11:48:02;98671.09;;;17.54;93.79
60871;BME280;46714;50.118;14.462;2022-09-09T11:50:33;98670.78;;;17.40;95.25
60871;BME280;46714;50.118;14.462;2022-09-09T11:53:18;98674.03;;;17.27;96.46
60871;BME280;46714;50.118;14.462;2022-09-09T11:55:47;98663.00;;;17.11;95.62
60871;BME280;46714;50.118;14.462;2022-09-09T11:58:25;98674.28;;;17.15;99.18
60871;BME280;46714;50.118;14.462;2022-09-09T12:00:51;98681.97;;;17.13;100.00
60871;BME280;46714;50.118;14.462;2022-09-09T12:09:09;98692.94;;;17.03;100.00
60871;BME280;46714;50.118;14.462;2022-09-09T12:11:50;98687.16;;;16.99;100.00
60871;BME280;46714;50.118;14.462;2022-09-09T12:14:20;98685.25;;;17.00;100.00
60871;BME280;46714;50.118;14.462;2022-09-09T12:26:18;98681.53;;;16.79;100.00
60871;BME280;46714;50.118;14.462;2022-09-09T12:28:59;98691.13;;;16.76;100.00
60871;BME280;46714;50.118;14.462;2022-09-09T12:34:29;98664.97;;;16.63;100.00
60871;BME280;46714;50.118;14.462;2022-09-09T12:40:06;98677.03;;;16.62;100.00
60871;BME280;46714;50.118;14.462;2022-09-09T12:42:43;98686.69;;;16.65;100.00
60871;BME280;46714;50.118;14.462;2022-09-09T12:45:16;98693.03;;;16.65;100.00
60871;BME280;46714;50.118;14.462;2022-09-09T12:47:51;98689.41;;;16.65;100.00
60871;BME280;46714;50.118;14.462;2022-09-09T12:50:28;98686.88;;;16.53;100.00
60871;BME280;46714;50.118;14.462;2022-09-09T12:53:02;98701.41;;;16.43;100.00
60871;BME280;46714;50.118;14.462;2022-09-09T12:55:32;98692.75;;;16.24;99.18
60871;BME280;46714;50.118;14.462;2022-09-09T12:58:04;98684.13;;;16.10;98.40
60871;BME280;46714;50.118;14.462;2022-09-09T13:00:31;98677.41;;;15.96;97.47
60871;BME280;46714;50.118;14.462;2022-09-09T13:02:59;98669.56;;;15.78;94.24
60871;BME280;46714;50.118;14.462;2022-09-09T13:05:27;98694.97;;;15.68;96.14
60871;BME280;46714;50.118;14.462;2022-09-09T13:08:09;98727.94;;;15.46;95.16
60871;BME280;46714;50.118;14.462;2022-09-09T13:10:39;98740.09;;;15.28;95.26
60871;BME280;46714;50.118;14.462;2022-09-09T13:13:13;98727.09;;;14.96;93.15
60871;BME280;46714;50.118;14.462;2022-09-09T13:15:47;98719.13;;;14.95;96.98
60871;BME280;46714;50.118;14.462;2022-09-09T13:18:19;98715.84;;;14.98;98.78
60871;BME280;46714;50.118;14.462;2022-09-09T13:20:48;98729.75;;;14.91;97.98
60871;BME280;46714;50.118;14.462;2022-09-09T13:23:15;98712.81;;;14.94;99.98
60871;BME280;46714;50.118;14.462;2022-09-09T13:25:52;98705.66;;;14.93;99.15
60871;BME280;46714;50.118;14.462;2022-09-09T13:28:23;98702.53;;;15.06;100.00
60871;BME280;46714;50.118;14.462;2022-09-09T13:31:00;98698.00;;;15.17;100.00
60871;BME280;46714;50.118;14.462;2022-09-09T13:33:36;98692.72;;;15.33;100.00
60871;BME280;46714;50.118;14.462;2022-09-09T13:36:04;98691.59;;;15.56;100.00
60871;BME280;46714;50.118;14.462;2022-09-09T13:38:33;98686.44;;;15.64;97.78
60871;BME280;46714;50.118;14.462;2022-09-09T13:41:09;98690.81;;;15.87;100.00
60871;BME280;46714;50.118;14.462;2022-09-09T13:43:53;98688.50;;;16.06;100.00
60871;BME280;46714;50.118;14.462;2022-09-09T13:46:39;98679.88;;;16.30;100.00
60871;BME280;46714;50.118;14.462;2022-09-09T13:51:35;98666.72;;;16.37;98.68
60871;BME280;46714;50.118;14.462;2022-09-09T13:54:06;98659.44;;;16.58;100.00
60871;BME280;46714;50.118;14.462;2022-09-09T13:56:34;98657.00;;;16.67;100.00
60871;BME280;46714;50.118;14.462;2022-09-09T13:59:00;98658.44;;;16.74;100.00
60871;BME280;46714;50.118;14.462;2022-09-09T14:01:26;98652.41;;;16.78;100.00
60871;BME280;46714;50.118;14.462;2022-09-09T14:03:52;98654.03;;;16.79;100.00
60871;BME280;46714;50.118;14.462;2022-09-09T14:06:18;98657.97;;;16.88;100.00
60871;BME280;46714;50.118;14.462;2022-09-09T14:08:44;98647.50;;;16.85;100.00
60871;BME280;46714;50.118;14.462;2022-09-09T14:11:11;98650.03;;;16.96;100.00
60871;BME280;46714;50.118;14.462;2022-09-09T14:13:38;98650.31;;;16.95;98.80
60871;BME280;46714;50.118;14.462;2022-09-09T14:16:03;98655.81;;;16.95;98.80
60871;BME280;46714;50.118;14.462;2022-09-09T14:18:29;98651.16;;;17.01;98.91
60871;BME280;46714;50.118;14.462;2022-09-09T14:20:54;98657.50;;;17.11;99.99
60871;BME280;46714;50.118;14.462;2022-09-09T14:23:20;98645.97;;;17.14;99.15
60871;BME280;46714;50.118;14.462;2022-09-09T14:25:47;98643.50;;;17.18;96.91
60871;BME280;46714;50.118;14.462;2022-09-09T14:28:14;98651.53;;;17.40;98.60
60871;BME280;46714;50.118;14.462;2022-09-09T14:30:40;98644.38;;;17.44;97.36
60871;BME280;46714;50.118;14.462;2022-09-09T14:33:07;98644.38;;;17.54;97.58
60871;BME280;46714;50.118;14.462;2022-09-09T14:35:35;98641.63;;;17.49;94.43
60871;BME280;46714;50.118;14.462;2022-09-09T14:38:01;98639.16;;;17.53;95.40
60871;BME280;46714;50.118;14.462;2022-09-09T14:40:27;98638.63;;;17.61;96.90
60871;BME280;46714;50.118;14.462;2022-09-09T14:42:53;98629.53;;;17.66;95.47
60871;BME280;46714;50.118;14.462;2022-09-09T14:45:19;98624.59;;;17.63;94.01
60871;BME280;46714;50.118;14.462;2022-09-09T14:47:46;98630.91;;;17.63;94.04
60871;BME280;46714;50.118;14.462;2022-09-09T14:50:11;98626.50;;;17.67;93.19
60871;BME280;46714;50.118;14.462;2022-09-09T14:52:37;98631.47;;;17.80;91.16
60871;BME280;46714;50.118;14.462;2022-09-09T14:55:03;98626.00;;;18.01;89.69
60871;BME280;46714;50.118;14.462;2022-09-09T14:57:28;98622.38;;;18.16;88.82
60871;BME280;46714;50.118;14.462;2022-09-09T14:59:54;98626.78;;;18.27;91.71
60871;BME280;46714;50.118;14.462;2022-09-09T15:02:19;98617.41;;;18.33;91.50
60871;BME280;46714;50.118;14.462;2022-09-09T15:04:44;98620.97;;;18.44;88.70
60871;BME280;46714;50.118;14.462;2022-09-09T15:07:10;98626.97;;;18.56;87.76
60871;BME280;46714;50.118;14.462;2022-09-09T15:09:36;98610.66;;;18.70;87.98
60871;BME280;46714;50.118;14.462;2022-09-09T15:12:02;98612.25;;;18.92;87.19
60871;BME280;46714;50.118;14.462;2022-09-09T15:14:29;98610.56;;;19.01;86.28
60871;BME280;46714;50.118;14.462;2022-09-09T15:16:55;98606.13;;;19.05;85.73
60871;BME280;46714;50.118;14.462;2022-09-09T15:19:21;98611.94;;;19.03;86.04
60871;BME280;46714;50.118;14.462;2022-09-09T15:21:46;98613.88;;;18.98;85.81
60871;BME280;46714;50.118;14.462;2022-09-09T15:24:13;98620.25;;;18.93;85.04
60871;BME280;46714;50.118;14.462;2022-09-09T15:26:38;98614.47;;;18.90;87.40
60871;BME280;46714;50.118;14.462;2022-09-09T15:29:04;98612.00;;;18.88;89.39
60871;BME280;46714;50.118;14.462;2022-09-09T15:31:31;98612.84;;;18.83;89.70
60871;BME280;46714;50.118;14.462;2022-09-09T15:33:58;98620.59;;;18.81;88.71
60871;BME280;46714;50.118;14.462;2022-09-09T15:36:26;98616.16;;;18.86;89.08
60871;BME280;46714;50.118;14.462;2022-09-09T15:38:53;98612.84;;;18.83;88.11
60871;BME280;46714;50.118;14.462;2022-09-09T15:41:20;98618.41;;;18.78;91.15
60871;BME280;46714;50.118;14.462;2022-09-09T15:43:47;98617.00;;;18.71;92.01
60871;BME280;46714;50.118;14.462;2022-09-09T15:48:57;98608.25;;;18.53;89.35
60871;BME280;46714;50.118;14.462;2022-09-09T15:51:34;98611.31;;;18.47;88.61